Quinebaug River @ Jewett City, Ct

Quinebaug River at Jewett City
 Total Drainage Area: 715 sq. miles 
 Drainage Area Controlled by Corps Dams: 231 sq. miles (32%) 
 Warning Flow/Stage: 7,770 cfs / 13.4 feet 
 Flood Flow/Stage: 13,600 cfs / 17.5 feet 
Date Time
(Eastern)
Stage
(ft)
Flow
(cfs)
CSM
(cfs / sq. mi.)
Jan-31 02:30 pm 9.52 3,438 4.8
Jan-31 01:30 pm 9.57 3,487 4.9
Jan-31 12:30 pm 9.51 3,429 4.8
Jan-31 11:30 am 8.43 2,467 3.5
Jan-31 10:30 am 9.43 3,352 4.7
Jan-31 09:30 am 9.41 3,334 4.7
Jan-31 08:30 am 9.45 3,371 4.7
Jan-31 07:30 am 9.43 3,352 4.7
Jan-31 06:30 am 9.46 3,381 4.7
Jan-31 05:30 am 9.49 3,410 4.8
Jan-31 04:30 am 9.51 3,429 4.8
Jan-31 03:30 am 9.53 3,448 4.8
Jan-31 02:30 am 9.54 3,458 4.8
Jan-31 01:30 am 9.56 3,477 4.9
Jan-31 12:30 am 9.57 3,487 4.9
Jan-30 11:30 pm 9.65 3,564 5.0
Jan-30 10:30 pm 9.74 3,648 5.1
Jan-30 09:30 pm 9.78 3,684 5.2
Jan-30 08:30 pm 9.81 3,711 5.2
Jan-30 07:30 pm 9.85 3,748 5.2
Jan-30 06:30 pm 9.89 3,784 5.3
Jan-30 05:30 pm 9.92 3,812 5.3
Jan-30 04:30 pm 9.96 3,848 5.4
Jan-30 03:30 pm 9.97 3,858 5.4
Jan-30 02:30 pm 10.05 3,934 5.5
Report Generated January 31, 2023 03:27 pm